Terminal Aerodrome Forecast
Issued by NWS

Home | Current Version | Previous Version | Text Only | Print | Product List | Glossary On
Versions: 1 2 3 4 5 6 7 8 9 10 11 12
000
FTUS41 KPHI 292300
TAFPNE
TAF
KPNE 292335Z 3000/3024 13003KT P6SM SCT250
      TEMPO 3011/3013 SCT020
     FM301300 17005KT P6SM FEW030
     FM301800 20007KT P6SM SCT050
      TEMPO 3018/3019 BKN050=

USA.gov is the U.S. government's official web portal to all federal, state and local government web resources and services.